Arkansas City, KS (67005)

5:00 AM CDT on October 20, 2014 (GMT -0500)
APRSWXNET Arkansas City KS US | Change Station
CLOSE
Current Station
Personal Weather Station
Location: Arkansas City, KS
Elevation: 1149 ft
Nearby Weather Stations

Elev 1149 ft 37.07 °N, 97.04 °W | Updated 26 minutes ago

Partly Cloudy
Partly Cloudy
59 °F
Feels Like 59 °F
N
0
Wind Variable Wind from South
Gusts 0.0 mph

Today
High -- | Low -- °F
--% Chance of Precip.
Yesterday
High -- | Low -- °F
Precip. -- in
7:40 AM 6:44 PM
Waning Crescent, 12% visible
Pressure 30.01 in
Visibility 10.0 miles
Clouds Few 6500 ft
Dew Point 57 °F
Humidity 92%
Rainfall 0.00 in
Snow Depth Not available.
UV 0 out of 12
Pollen 3.60 out of 12
Air Quality Not available.
Flu Activity No Activity
METAR KWLD 200954Z AUTO 09004KT 10SM FEW065 14/12 A3002 RMK AO2 SLP160 T01440122

More Conditions Fewer Conditions

Pressure 30.01 in
Visibility 10.0 miles
Clouds Few 6500 ft
Dew Point 57 °F
Humidity 92%
Rainfall 0.00 in
Snow Depth Not available.
UV 0 out of 12
Pollen 3.60 out of 12
Air Quality Not available.
Flu Activity No Activity
METAR KWLD 200954Z AUTO 09004KT 10SM FEW065 14/12 A3002 RMK AO2 SLP160 T01440122

More Conditions Fewer Conditions

10-Day Weather Forecast

Almanac

Astronomy

Oct. 20, 2014 Rise Set
Actual Time 7:40 AM CDT 6:44 PM CDT
Civil Twilight 7:14 AM CDT 7:11 PM CDT
Nautical Twilight 6:44 AM CDT 7:41 PM CDT
Astronomical Twilight 6:13 AM CDT 8:11 PM CDT
Moon 4:34 AM CDT 5:04 PM CDT
Length of Visible Light 11h 56m
Length of Day
11h 04m
Waning Crescent, 12% of the Moon is Illuminated
Today
Waning Crescent
Oct 23
New
Oct 30
First Quarter
Nov 6
Full
Nov 14
Last Quarter

Today's Extremes

State Highs State Lows

Community

WunderPhotos

Upload Photos

1,763,326 photos uploaded!

Nearby

Snow Depth

Station Depth Elevation
No new snow has been reported.

Earthquake Activity

City Distance Mag. Time & Date
Pawnee, Oklahoma 54 miles 3.0 10:04 PM CDT
2014-10-18
Pawnee, Oklahoma 54 miles 3.0 8:49 PM CDT
2014-10-18
Pawnee, Oklahoma 54 miles 3.3 8:16 PM CDT
2014-10-18
Perry, Oklahoma 65 miles 3.0 2:26 PM CDT
2014-10-18
Minimum magnitude displayed is 2.5.

Coastal Water Temperatures

Place Temperature
No Stations Reporting

Nearby Weather Stations